createdAt,value
2019-05-30T00:01:14.972Z,15.60
2019-05-30T00:03:43.864Z,14.57
2019-05-30T00:06:12.771Z,14.90
2019-05-30T00:08:41.787Z,15.60
2019-05-30T00:11:10.595Z,15.93
2019-05-30T00:13:39.510Z,15.80
2019-05-30T00:16:08.432Z,15.70
2019-05-30T00:18:37.343Z,15.10
2019-05-30T00:21:06.247Z,15.10
2019-05-30T00:23:35.163Z,15.23
2019-05-30T00:26:04.083Z,14.90
2019-05-30T00:28:33.009Z,14.80
2019-05-30T00:31:02.562Z,14.80
2019-05-30T00:33:30.851Z,14.27
2019-05-30T00:35:59.924Z,14.93
2019-05-30T00:38:28.648Z,14.20
2019-05-30T00:40:57.814Z,14.53
2019-05-30T00:43:26.476Z,14.87
2019-05-30T00:45:55.889Z,15.17
2019-05-30T00:48:24.303Z,14.43
2019-05-30T00:50:53.234Z,15.37
2019-05-30T00:53:22.135Z,14.00
2019-05-30T00:55:51.076Z,15.17
2019-05-30T00:58:20.024Z,14.27
2019-05-30T01:00:48.937Z,16.13
2019-05-30T01:03:17.850Z,14.87
2019-05-30T01:05:46.780Z,15.80
2019-05-30T01:08:15.699Z,14.83
2019-05-30T01:10:44.591Z,14.93
2019-05-30T01:13:13.516Z,15.80
2019-05-30T01:15:42.441Z,15.70
2019-05-30T01:18:11.362Z,15.33
2019-05-30T01:20:40.277Z,15.37
2019-05-30T01:23:09.233Z,15.27
2019-05-30T01:25:38.136Z,15.73
2019-05-30T01:28:07.877Z,15.77
2019-05-30T01:30:36.002Z,15.93
2019-05-30T01:33:05.883Z,15.57
2019-05-30T01:35:33.872Z,16.50
2019-05-30T01:38:03.954Z,16.67
2019-05-30T01:40:31.795Z,15.97
2019-05-30T01:43:01.974Z,16.03
2019-05-30T01:45:29.565Z,16.80
2019-05-30T01:47:58.472Z,19.05
2019-05-30T01:50:27.421Z,16.83
2019-05-30T01:52:56.322Z,17.43
2019-05-30T01:55:25.238Z,17.80
2019-05-30T01:57:54.137Z,16.10
2019-05-30T02:00:23.645Z,14.13
2019-05-30T02:02:52.563Z,13.30
2019-05-30T02:05:21.492Z,12.70
2019-05-30T02:07:50.388Z,13.40
2019-05-30T02:10:19.313Z,12.20
2019-05-30T02:12:48.207Z,11.83
2019-05-30T02:15:17.280Z,12.20
2019-05-30T02:17:46.211Z,11.30
2019-05-30T02:20:15.107Z,11.17
2019-05-30T02:22:44.053Z,11.73
2019-05-30T02:25:12.973Z,10.40
2019-05-30T02:27:41.874Z,12.07
2019-05-30T02:30:14.297Z,10.93
2019-05-30T02:32:39.745Z,10.50
2019-05-30T02:35:12.156Z,11.17
2019-05-30T02:37:37.612Z,11.60
2019-05-30T02:40:09.913Z,10.80
2019-05-30T02:42:35.536Z,12.30
2019-05-30T02:45:05.743Z,11.43
2019-05-30T02:47:33.452Z,11.70
2019-05-30T02:50:04.036Z,10.77
2019-05-30T02:52:31.316Z,10.80
2019-05-30T02:55:01.804Z,10.20
2019-05-30T02:57:29.105Z,9.60
2019-05-30T02:59:58.020Z,9.40
2019-05-30T03:02:27.000Z,9.40
2019-05-30T03:04:55.835Z,9.50
2019-05-30T03:07:24.769Z,7.87
2019-05-30T03:09:53.651Z,7.70
2019-05-30T03:12:22.562Z,7.00
2019-05-30T03:14:51.441Z,7.37
2019-05-30T03:17:20.358Z,6.33
2019-05-30T03:19:49.278Z,6.60
2019-05-30T03:22:18.185Z,6.40
2019-05-30T03:24:47.069Z,6.13
2019-05-30T03:27:15.996Z,6.60
2019-05-30T03:29:44.885Z,6.47
2019-05-30T03:33:00.722Z,6.50
2019-05-30T03:34:42.706Z,6.13
2019-05-30T03:37:23.064Z,6.57
2019-05-30T03:39:40.505Z,6.20
2019-05-30T03:42:11.309Z,5.93
2019-05-30T03:44:38.320Z,6.60
2019-05-30T03:47:08.576Z,6.43
2019-05-30T03:49:36.434Z,6.10
2019-05-30T03:52:08.147Z,6.20
2019-05-30T03:54:34.434Z,6.70
2019-05-30T03:57:11.097Z,6.03
2019-05-30T03:59:41.061Z,6.47
2019-05-30T04:02:18.983Z,6.58
2019-05-30T04:04:48.551Z,6.00
2019-05-30T04:07:19.455Z,5.93
2019-05-30T04:09:46.525Z,6.60
2019-05-30T04:12:36.233Z,6.90
2019-05-30T04:15:07.974Z,6.63
2019-05-30T04:17:35.247Z,6.90
2019-05-30T04:20:07.006Z,7.10
2019-05-30T04:22:34.170Z,6.57
2019-05-30T04:25:03.133Z,7.40
2019-05-30T04:27:32.015Z,7.00
2019-05-30T04:30:00.916Z,7.03
2019-05-30T04:32:29.822Z,6.73
2019-05-30T04:34:58.730Z,7.37
2019-05-30T04:37:27.638Z,7.23
2019-05-30T04:39:56.531Z,6.53
2019-05-30T04:42:25.434Z,6.50
2019-05-30T04:44:54.312Z,5.80
2019-05-30T04:47:23.232Z,6.30
2019-05-30T04:49:52.125Z,6.43
2019-05-30T04:52:24.582Z,6.40
2019-05-30T04:54:49.946Z,5.97
2019-05-30T04:57:19.989Z,6.77
2019-05-30T04:59:47.733Z,6.50
2019-05-30T05:02:18.775Z,6.70
2019-05-30T05:04:45.522Z,6.50
2019-05-30T05:07:15.669Z,6.90
2019-05-30T05:09:43.338Z,6.70
2019-05-30T05:12:12.258Z,7.10
2019-05-30T05:14:41.160Z,6.80
2019-05-30T05:17:10.483Z,6.27
2019-05-30T05:19:39.391Z,6.93
2019-05-30T05:22:08.467Z,7.27
2019-05-30T05:24:37.360Z,7.30
2019-05-30T05:27:09.754Z,7.30
2019-05-30T05:29:35.358Z,8.07
2019-05-30T05:32:04.332Z,8.83
2019-05-30T05:34:33.236Z,8.10
2019-05-30T05:37:02.163Z,9.00
2019-05-30T05:39:31.054Z,8.70
2019-05-30T05:41:59.965Z,8.80
2019-05-30T05:44:28.870Z,9.00
2019-05-30T05:46:57.772Z,8.77
2019-05-30T05:49:26.656Z,9.03
2019-05-30T05:51:55.597Z,9.13
2019-05-30T05:54:25.013Z,9.77
2019-05-30T05:56:53.406Z,9.27
2019-05-30T05:59:23.017Z,9.80
2019-05-30T06:01:51.219Z,11.33
2019-05-30T06:04:21.123Z,11.07
2019-05-30T06:06:49.022Z,9.80
2019-05-30T06:09:18.354Z,10.67
2019-05-30T06:11:49.045Z,10.70
2019-05-30T06:14:15.730Z,10.83
2019-05-30T06:16:44.648Z,11.70
2019-05-30T06:19:13.546Z,11.33
2019-05-30T06:21:53.604Z,12.47
2019-05-30T06:24:11.410Z,11.47
2019-05-30T06:26:40.342Z,12.80
2019-05-30T06:29:09.267Z,12.17
2019-05-30T06:31:38.173Z,12.80
2019-05-30T06:34:07.310Z,12.80
2019-05-30T06:36:36.193Z,13.07
2019-05-30T06:39:08.053Z,12.47
2019-05-30T06:41:36.948Z,13.03
2019-05-30T06:44:06.061Z,14.30
2019-05-30T06:46:34.937Z,14.10
2019-05-30T06:49:03.913Z,14.23
2019-05-30T06:51:32.846Z,14.80
2019-05-30T06:54:01.757Z,14.60
2019-05-30T06:56:31.582Z,14.53
2019-05-30T06:58:59.547Z,13.90
2019-05-30T07:01:28.485Z,13.73
2019-05-30T07:03:57.537Z,14.13
2019-05-30T07:06:27.474Z,14.43
2019-05-30T07:08:55.180Z,14.83
2019-05-30T07:11:24.725Z,14.23
2019-05-30T07:13:53.013Z,14.33
2019-05-30T07:16:23.290Z,15.03
2019-05-30T07:18:50.833Z,14.53
2019-05-30T07:21:19.751Z,14.53
2019-05-30T07:23:48.643Z,15.33
2019-05-30T07:26:17.560Z,15.03
2019-05-30T07:28:46.450Z,15.43
2019-05-30T07:31:15.358Z,14.50
2019-05-30T07:33:44.279Z,15.03
2019-05-30T07:36:16.979Z,14.13
2019-05-30T07:38:49.063Z,15.03
2019-05-30T07:41:18.340Z,14.97
2019-05-30T07:43:47.554Z,19.15
2019-05-30T07:46:19.509Z,15.40
2019-05-30T07:48:51.176Z,16.27
2019-05-30T07:51:24.192Z,15.73
2019-05-30T07:53:51.903Z,15.70
2019-05-30T07:56:22.822Z,16.53
2019-05-30T07:58:52.099Z,16.00
2019-05-30T08:01:22.062Z,16.73
2019-05-30T08:03:51.160Z,17.53
2019-05-30T08:06:22.552Z,20.68
2019-05-30T08:08:56.504Z,17.40
2019-05-30T08:11:23.288Z,17.87
2019-05-30T08:13:52.374Z,17.17
2019-05-30T08:16:21.552Z,18.03
2019-05-30T08:18:50.502Z,17.23
2019-05-30T08:21:20.589Z,17.60
2019-05-30T08:23:52.264Z,18.07
2019-05-30T08:26:21.557Z,18.53
2019-05-30T08:28:55.254Z,18.53
2019-05-30T08:34:10.784Z,19.37
2019-05-30T08:36:40.205Z,18.27
2019-05-30T08:39:09.722Z,19.17
2019-05-30T08:41:39.506Z,19.73
2019-05-30T08:44:08.514Z,20.70
2019-05-30T08:46:46.595Z,19.30
2019-05-30T08:49:15.756Z,20.10
2019-05-30T08:51:47.673Z,20.73
2019-05-30T08:54:16.771Z,20.93
2019-05-30T08:56:50.815Z,19.80
2019-05-30T08:59:20.925Z,20.10
2019-05-30T09:01:53.337Z,19.23
2019-05-30T09:04:21.958Z,19.50
2019-05-30T09:06:51.353Z,18.80
2019-05-30T09:09:22.720Z,18.70
2019-05-30T09:11:52.005Z,22.62
2019-05-30T09:14:21.329Z,18.93
2019-05-30T09:16:51.151Z,21.40
2019-05-30T09:19:22.176Z,18.87
2019-05-30T09:21:49.288Z,18.60
2019-05-30T09:24:18.572Z,17.10
2019-05-30T09:26:50.312Z,18.07
2019-05-30T09:29:16.914Z,18.03
2019-05-30T09:31:48.748Z,18.33
2019-05-30T09:34:18.040Z,21.12
2019-05-30T09:36:47.212Z,18.23
2019-05-30T09:39:19.385Z,18.43
2019-05-30T09:41:48.009Z,18.97
2019-05-30T09:44:14.769Z,18.60
2019-05-30T09:46:44.307Z,19.57
2019-05-30T09:49:16.453Z,19.93
2019-05-30T09:51:45.230Z,20.50
2019-05-30T09:54:17.041Z,20.70
2019-05-30T09:56:48.554Z,19.50
2019-05-30T09:59:19.827Z,20.43
2019-05-30T10:01:50.159Z,19.40
2019-05-30T10:04:19.170Z,20.30
2019-05-30T10:06:53.908Z,19.47
2019-05-30T10:09:24.893Z,20.10
2019-05-30T10:11:59.989Z,19.20
2019-05-30T10:14:29.386Z,19.50
2019-05-30T10:16:58.380Z,19.17
2019-05-30T10:19:27.594Z,19.40
2019-05-30T10:21:57.282Z,18.53
2019-05-30T10:24:28.407Z,19.87
2019-05-30T10:26:59.861Z,18.50
2019-05-30T10:29:27.265Z,19.53
2019-05-30T10:31:56.967Z,18.47
2019-05-30T10:34:36.107Z,19.67
2019-05-30T10:37:05.369Z,18.87
2019-05-30T10:39:34.691Z,19.90
2019-05-30T10:42:06.668Z,18.10
2019-05-30T10:44:35.806Z,18.37
2019-05-30T10:47:04.971Z,17.30
2019-05-30T10:49:35.338Z,18.50
2019-05-30T10:52:05.749Z,18.17
2019-05-30T10:54:34.800Z,17.75
2019-05-30T10:57:03.905Z,18.07
2019-05-30T10:59:33.007Z,19.62
2019-05-30T11:02:07.198Z,18.10
2019-05-30T11:04:34.237Z,17.23
2019-05-30T11:07:22.841Z,17.50
2019-05-30T11:09:54.832Z,17.43
2019-05-30T11:12:23.832Z,16.97
2019-05-30T11:14:53.757Z,17.70
2019-05-30T11:17:22.798Z,17.32
2019-05-30T11:19:52.062Z,17.35
2019-05-30T11:22:21.096Z,16.43
2019-05-30T11:24:50.346Z,15.50
2019-05-30T11:27:19.203Z,17.27
2019-05-30T11:29:48.713Z,16.33
2019-05-30T11:32:19.893Z,16.87
2019-05-30T11:34:51.541Z,16.07
2019-05-30T11:37:23.097Z,18.32
2019-05-30T11:39:51.046Z,16.75
2019-05-30T11:42:19.668Z,16.00
2019-05-30T11:44:49.709Z,16.45
2019-05-30T11:47:18.668Z,15.87
2019-05-30T11:49:48.040Z,16.07
2019-05-30T11:52:19.499Z,19.10
2019-05-30T11:54:46.720Z,16.12
2019-05-30T11:57:17.799Z,15.98
2019-05-30T11:59:46.898Z,17.02
2019-05-30T12:02:16.268Z,17.42
2019-05-30T12:04:45.525Z,17.07
2019-05-30T12:07:14.776Z,16.40
2019-05-30T12:09:43.909Z,15.20
2019-05-30T12:12:13.375Z,16.05
2019-05-30T12:14:42.790Z,15.10
2019-05-30T12:17:11.912Z,15.67
2019-05-30T12:19:41.067Z,15.23
2019-05-30T12:22:12.159Z,14.47
2019-05-30T12:24:41.527Z,14.07
2019-05-30T12:27:10.717Z,13.83
2019-05-30T12:29:42.547Z,12.95
2019-05-30T12:32:12.182Z,13.68
2019-05-30T12:34:41.390Z,13.83
2019-05-30T12:37:10.471Z,13.73
2019-05-30T12:39:39.478Z,14.15
2019-05-30T12:42:11.433Z,12.35
2019-05-30T12:44:41.486Z,13.28
2019-05-30T12:47:10.757Z,13.53
2019-05-30T12:49:39.921Z,13.45
2019-05-30T12:52:11.700Z,14.28
2019-05-30T12:54:40.996Z,14.90
2019-05-30T12:57:10.091Z,13.93
2019-05-30T12:59:39.386Z,14.33
2019-05-30T13:02:11.331Z,14.43
2019-05-30T13:04:46.046Z,14.18
2019-05-30T13:07:17.390Z,14.75
2019-05-30T13:09:46.698Z,14.90
2019-05-30T13:12:18.304Z,15.20
2019-05-30T13:14:50.098Z,15.45
2019-05-30T13:17:19.279Z,15.95
2019-05-30T13:19:48.499Z,14.93
2019-05-30T13:22:20.790Z,14.10
2019-05-30T13:24:49.953Z,15.40
2019-05-30T13:27:19.267Z,15.00
2019-05-30T13:29:48.659Z,15.10
2019-05-30T13:32:17.672Z,15.80
2019-05-30T13:34:46.945Z,18.35
2019-05-30T13:37:15.963Z,15.28
2019-05-30T13:39:45.313Z,14.90
2019-05-30T13:42:16.449Z,14.83
2019-05-30T13:44:45.656Z,14.98
2019-05-30T13:47:14.736Z,14.55
2019-05-30T13:49:43.911Z,14.53
2019-05-30T13:52:13.257Z,14.28
2019-05-30T13:54:42.414Z,13.48
2019-05-30T13:57:16.744Z,12.82
2019-05-30T13:59:48.374Z,12.55
2019-05-30T14:02:17.700Z,12.07
2019-05-30T14:04:47.296Z,12.13
2019-05-30T14:07:16.475Z,11.65
2019-05-30T14:09:45.620Z,13.03
2019-05-30T14:12:14.972Z,11.68
2019-05-30T14:14:44.237Z,11.68
2019-05-30T14:17:13.787Z,11.65
2019-05-30T14:19:43.215Z,12.15
2019-05-30T14:22:12.301Z,10.70
2019-05-30T14:24:45.988Z,11.12
2019-05-30T14:27:15.244Z,11.20
2019-05-30T14:29:44.415Z,10.88
2019-05-30T14:32:14.038Z,11.43
2019-05-30T14:34:43.210Z,10.90
2019-05-30T14:37:12.646Z,10.88
2019-05-30T14:39:41.476Z,11.95
2019-05-30T14:42:11.423Z,11.05
2019-05-30T14:44:40.665Z,11.38
2019-05-30T14:47:12.456Z,11.43
2019-05-30T14:49:41.163Z,10.55
2019-05-30T14:52:11.723Z,10.50
2019-05-30T14:54:42.763Z,10.35
2019-05-30T14:57:13.047Z,10.08
2019-05-30T14:59:41.455Z,9.45
2019-05-30T15:02:17.449Z,9.38
2019-05-30T15:04:48.397Z,11.75
2019-05-30T15:07:17.603Z,11.83
2019-05-30T15:09:46.713Z,11.33
2019-05-30T15:12:18.827Z,9.38
2019-05-30T15:14:47.912Z,9.50
2019-05-30T15:17:19.370Z,9.35
2019-05-30T15:19:48.952Z,9.05
2019-05-30T15:22:20.629Z,8.48
2019-05-30T15:24:52.548Z,7.55
2019-05-30T15:27:21.743Z,7.50
2019-05-30T15:29:51.960Z,7.17
2019-05-30T15:32:23.514Z,6.28
2019-05-30T15:34:52.633Z,6.53
2019-05-30T15:37:21.747Z,6.92
2019-05-30T15:39:50.934Z,7.12
2019-05-30T15:42:21.936Z,6.15
2019-05-30T15:44:58.466Z,5.83
2019-05-30T15:47:29.919Z,5.97
2019-05-30T15:50:01.062Z,6.28
2019-05-30T15:52:30.179Z,5.90
2019-05-30T15:54:59.417Z,5.50
2019-05-30T15:57:28.506Z,5.33
2019-05-30T16:00:04.068Z,5.22
2019-05-30T16:02:33.341Z,5.30
2019-05-30T16:05:02.518Z,5.25
2019-05-30T16:07:31.539Z,4.40
2019-05-30T16:10:02.119Z,4.10
2019-05-30T16:12:33.446Z,4.42
2019-05-30T16:15:04.827Z,3.85
2019-05-30T16:17:34.297Z,3.47
2019-05-30T16:20:03.481Z,4.58
2019-05-30T16:22:32.387Z,4.10
2019-05-30T16:25:01.314Z,4.00
2019-05-30T16:27:31.208Z,4.22
2019-05-30T16:29:59.113Z,3.65
2019-05-30T16:32:28.013Z,3.95
2019-05-30T16:34:56.919Z,3.05
2019-05-30T16:37:26.346Z,3.27
2019-05-30T16:40:05.468Z,3.37
2019-05-30T16:42:23.611Z,3.27
2019-05-30T16:44:52.515Z,3.15
2019-05-30T16:47:22.458Z,3.20
2019-05-30T16:49:50.309Z,2.85
2019-05-30T16:52:19.320Z,2.80
2019-05-30T16:54:48.097Z,2.80
2019-05-30T16:57:17.046Z,3.05
2019-05-30T16:59:45.931Z,2.70
2019-05-30T17:02:14.882Z,2.25
2019-05-30T17:04:43.755Z,2.45
2019-05-30T17:07:12.674Z,2.98
2019-05-30T17:09:41.587Z,3.10
2019-05-30T17:12:10.492Z,3.30
2019-05-30T17:14:39.391Z,3.00
2019-05-30T17:17:08.376Z,3.55
2019-05-30T17:19:39.268Z,3.42
2019-05-30T17:22:06.284Z,3.30
2019-05-30T17:24:35.167Z,3.70
2019-05-30T17:27:04.109Z,3.12
2019-05-30T17:29:32.986Z,3.30
2019-05-30T17:32:01.867Z,3.50
2019-05-30T17:34:30.769Z,3.25
2019-05-30T17:36:59.684Z,3.45
2019-05-30T17:39:28.914Z,3.55
2019-05-30T17:41:57.462Z,3.72
2019-05-30T17:44:27.201Z,3.30
2019-05-30T17:46:55.254Z,3.62
2019-05-30T17:49:24.145Z,3.58
2019-05-30T17:51:53.046Z,3.67
2019-05-30T17:54:21.921Z,3.87
2019-05-30T17:56:50.813Z,3.90
2019-05-30T17:59:20.194Z,3.30
2019-05-30T18:01:48.622Z,2.70
2019-05-30T18:04:17.496Z,2.30
2019-05-30T18:06:46.401Z,2.40
2019-05-30T18:09:15.313Z,2.35
2019-05-30T18:11:44.194Z,2.65
2019-05-30T18:14:13.104Z,2.55
2019-05-30T18:16:42.015Z,3.02
2019-05-30T18:19:10.957Z,2.65
2019-05-30T18:21:39.844Z,2.67
2019-05-30T18:24:08.775Z,2.37
2019-05-30T18:26:37.641Z,2.90
2019-05-30T18:29:06.666Z,2.90
2019-05-30T18:31:35.555Z,2.45
2019-05-30T18:34:04.486Z,2.95
2019-05-30T18:36:33.388Z,2.92
2019-05-30T18:39:02.298Z,2.87
2019-05-30T18:41:31.201Z,2.90
2019-05-30T18:44:00.071Z,3.10
2019-05-30T18:46:29.203Z,3.17
2019-05-30T18:48:57.848Z,2.85
2019-05-30T18:51:26.757Z,2.90
2019-05-30T18:53:55.656Z,3.47
2019-05-30T18:56:24.630Z,3.37
2019-05-30T18:58:53.442Z,3.17
2019-05-30T19:01:22.348Z,3.00
2019-05-30T19:03:51.277Z,3.02
2019-05-30T19:06:20.139Z,3.30
2019-05-30T19:08:49.002Z,3.45
2019-05-30T19:11:27.299Z,3.08
2019-05-30T19:13:46.828Z,3.33
2019-05-30T19:16:15.712Z,3.55
2019-05-30T19:18:44.583Z,3.25
2019-05-30T19:21:13.515Z,3.62
2019-05-30T19:23:42.418Z,3.70
2019-05-30T19:26:11.627Z,3.45
2019-05-30T19:28:40.225Z,3.77
2019-05-30T19:31:09.188Z,3.95
2019-05-30T19:33:38.085Z,4.28
2019-05-30T19:36:07.093Z,4.00
2019-05-30T19:38:36.010Z,4.20
2019-05-30T19:41:04.968Z,3.75
2019-05-30T19:43:33.883Z,3.70
2019-05-30T19:46:02.770Z,3.87
2019-05-30T19:48:32.255Z,3.37
2019-05-30T19:51:00.543Z,3.65
2019-05-30T19:53:30.696Z,3.80
2019-05-30T19:55:58.328Z,3.80
2019-05-30T19:58:27.222Z,3.98
2019-05-30T20:00:58.952Z,4.00
2019-05-30T20:03:36.480Z,3.85
2019-05-30T20:05:54.047Z,3.72
2019-05-30T20:08:22.886Z,3.47
2019-05-30T20:10:51.783Z,3.90
2019-05-30T20:13:20.683Z,4.25
2019-05-30T20:15:49.593Z,3.83
2019-05-30T20:18:18.491Z,3.87
2019-05-30T20:20:56.968Z,4.12
2019-05-30T20:23:16.271Z,3.90
2019-05-30T20:25:46.081Z,4.28
2019-05-30T20:28:14.046Z,4.47
2019-05-30T20:30:43.317Z,4.30
2019-05-30T20:33:11.830Z,4.20
2019-05-30T20:35:42.151Z,4.67
2019-05-30T20:38:09.824Z,4.30
2019-05-30T20:40:38.926Z,4.72
2019-05-30T20:43:07.616Z,4.65
2019-05-30T20:45:39.555Z,4.87
2019-05-30T20:48:05.401Z,4.60
2019-05-30T20:50:35.012Z,5.45
2019-05-30T20:53:03.209Z,5.22
2019-05-30T20:55:32.196Z,5.95
2019-05-30T20:58:01.001Z,5.62
2019-05-30T21:00:37.786Z,5.58
2019-05-30T21:03:05.651Z,5.90
2019-05-30T21:05:35.627Z,6.08
2019-05-30T21:08:05.803Z,6.95
2019-05-30T21:10:32.428Z,5.83
2019-05-30T21:13:01.559Z,6.20
2019-05-30T21:15:32.146Z,6.95
2019-05-30T21:18:01.023Z,5.95
2019-05-30T21:20:29.926Z,6.00
2019-05-30T21:22:58.819Z,6.70
2019-05-30T21:25:27.696Z,5.55
2019-05-30T21:27:56.598Z,6.28
2019-05-30T21:30:25.503Z,6.08
2019-05-30T21:32:54.563Z,5.95
2019-05-30T21:35:23.445Z,4.92
2019-05-30T21:37:52.293Z,6.15
2019-05-30T21:40:21.175Z,6.10
2019-05-30T21:43:04.852Z,6.47
2019-05-30T21:45:18.976Z,5.50
2019-05-30T21:47:48.933Z,5.90
2019-05-30T21:50:16.754Z,5.60
2019-05-30T21:52:46.311Z,5.75
2019-05-30T21:55:14.594Z,6.20
2019-05-30T21:57:43.926Z,5.75
2019-05-30T22:00:13.375Z,6.05
2019-05-30T22:02:42.327Z,5.67
2019-05-30T22:05:11.193Z,5.78
2019-05-30T22:07:40.924Z,5.70
2019-05-30T22:10:09.003Z,5.08
2019-05-30T22:12:37.891Z,5.80
2019-05-30T22:15:06.848Z,6.35
2019-05-30T22:17:35.731Z,5.90
2019-05-30T22:20:05.064Z,5.53
2019-05-30T22:22:33.955Z,5.67
2019-05-30T22:25:02.869Z,5.75
2019-05-30T22:27:31.768Z,5.75
2019-05-30T22:30:00.658Z,5.42
2019-05-30T22:32:29.561Z,5.62
2019-05-30T22:34:58.452Z,5.83
2019-05-30T22:37:27.331Z,5.58
2019-05-30T22:39:56.259Z,5.10
2019-05-30T22:42:25.137Z,5.95
2019-05-30T22:44:54.036Z,5.95
2019-05-30T22:47:22.913Z,6.08
2019-05-30T22:49:52.940Z,5.78
2019-05-30T22:52:20.713Z,5.47
2019-05-30T22:54:49.609Z,5.83
2019-05-30T22:57:18.479Z,5.92
2019-05-30T22:59:47.370Z,5.72
2019-05-30T23:02:16.273Z,5.53
2019-05-30T23:04:45.978Z,5.83
2019-05-30T23:07:14.057Z,5.35
2019-05-30T23:09:43.167Z,5.55
2019-05-30T23:12:12.057Z,5.62
2019-05-30T23:14:40.956Z,5.53
2019-05-30T23:17:09.886Z,5.53
2019-05-30T23:19:38.769Z,5.17
2019-05-30T23:22:07.672Z,5.97
2019-05-30T23:24:36.572Z,5.85
2019-05-30T23:27:08.254Z,5.62
2019-05-30T23:29:34.387Z,5.45
2019-05-30T23:32:03.308Z,5.22
2019-05-30T23:34:32.186Z,5.37
2019-05-30T23:37:01.101Z,5.50
2019-05-30T23:39:30.019Z,5.00
2019-05-30T23:41:59.332Z,5.45
2019-05-30T23:44:27.841Z,5.00
2019-05-30T23:46:57.838Z,4.95
2019-05-30T23:49:25.634Z,5.00
2019-05-30T23:51:54.753Z,4.80
2019-05-30T23:54:23.438Z,4.87
2019-05-30T23:56:52.461Z,5.22
2019-05-30T23:59:21.236Z,5.00
